sensor_id;sensor_type;location;lat;lon;timestamp;temperature;humidity
71177;DHT22;58877;51.992;4.504;2023-09-07T00:02:16;21.69;74.07
71177;DHT22;58877;51.992;4.504;2023-09-07T00:04:42;21.69;74.00
71177;DHT22;58877;51.992;4.504;2023-09-07T00:07:08;21.68;74.01
71177;DHT22;58877;51.992;4.504;2023-09-07T00:09:34;21.68;73.94
71177;DHT22;58877;51.992;4.504;2023-09-07T00:12:00;21.67;73.95
71177;DHT22;58877;51.992;4.504;2023-09-07T00:14:26;21.65;73.83
71177;DHT22;58877;51.992;4.504;2023-09-07T00:16:51;21.64;73.79
71177;DHT22;58877;51.992;4.504;2023-09-07T00:19:17;21.65;73.80
71177;DHT22;58877;51.992;4.504;2023-09-07T00:21:43;21.64;73.77
71177;DHT22;58877;51.992;4.504;2023-09-07T00:24:08;21.67;73.63
71177;DHT22;58877;51.992;4.504;2023-09-07T00:26:35;21.71;73.50
71177;DHT22;58877;51.992;4.504;2023-09-07T00:29:01;21.68;73.26
71177;DHT22;58877;51.992;4.504;2023-09-07T00:31:26;21.64;73.22
71177;DHT22;58877;51.992;4.504;2023-09-07T00:33:52;21.58;73.41
71177;DHT22;58877;51.992;4.504;2023-09-07T00:36:17;21.54;73.44
71177;DHT22;58877;51.992;4.504;2023-09-07T00:38:44;21.44;73.53
71177;DHT22;58877;51.992;4.504;2023-09-07T00:41:09;21.34;73.77
71177;DHT22;58877;51.992;4.504;2023-09-07T00:43:35;21.27;73.97
71177;DHT22;58877;51.992;4.504;2023-09-07T00:46:00;21.22;74.29
71177;DHT22;58877;51.992;4.504;2023-09-07T00:48:26;21.17;74.53
71177;DHT22;58877;51.992;4.504;2023-09-07T00:50:52;21.11;74.95
71177;DHT22;58877;51.992;4.504;2023-09-07T00:53:18;21.08;75.32
71177;DHT22;58877;51.992;4.504;2023-09-07T00:55:45;21.06;75.21
71177;DHT22;58877;51.992;4.504;2023-09-07T00:58:11;21.04;75.13
71177;DHT22;58877;51.992;4.504;2023-09-07T01:00:37;21.02;75.20
71177;DHT22;58877;51.992;4.504;2023-09-07T01:03:03;21.00;75.14
71177;DHT22;58877;51.992;4.504;2023-09-07T01:06:01;20.96;75.33
71177;DHT22;58877;51.992;4.504;2023-09-07T01:08:37;20.99;75.42
71177;DHT22;58877;51.992;4.504;2023-09-07T01:11:17;21.00;75.30
71177;DHT22;58877;51.992;4.504;2023-09-07T01:13:43;21.07;75.19
71177;DHT22;58877;51.992;4.504;2023-09-07T01:16:10;21.04;75.10
71177;DHT22;58877;51.992;4.504;2023-09-07T01:18:40;21.02;75.04
71177;DHT22;58877;51.992;4.504;2023-09-07T01:21:08;20.96;74.99
71177;DHT22;58877;51.992;4.504;2023-09-07T01:23:41;20.94;74.98
71177;DHT22;58877;51.992;4.504;2023-09-07T01:26:08;20.96;75.01
71177;DHT22;58877;51.992;4.504;2023-09-07T01:28:35;20.93;74.98
71177;DHT22;58877;51.992;4.504;2023-09-07T01:31:02;20.96;74.89
71177;DHT22;58877;51.992;4.504;2023-09-07T01:33:28;20.93;75.12
71177;DHT22;58877;51.992;4.504;2023-09-07T01:35:56;20.92;75.41
71177;DHT22;58877;51.992;4.504;2023-09-07T01:38:22;20.82;75.36
71177;DHT22;58877;51.992;4.504;2023-09-07T01:40:48;20.75;75.08
71177;DHT22;58877;51.992;4.504;2023-09-07T01:43:14;20.66;75.26
71177;DHT22;58877;51.992;4.504;2023-09-07T01:45:42;20.53;75.45
71177;DHT22;58877;51.992;4.504;2023-09-07T01:48:11;20.55;75.46
71177;DHT22;58877;51.992;4.504;2023-09-07T01:50:37;20.48;75.67
71177;DHT22;58877;51.992;4.504;2023-09-07T01:53:03;20.49;75.79
71177;DHT22;58877;51.992;4.504;2023-09-07T01:55:36;20.48;75.75
71177;DHT22;58877;51.992;4.504;2023-09-07T01:58:04;20.39;75.91
71177;DHT22;58877;51.992;4.504;2023-09-07T02:00:39;20.35;75.97
71177;DHT22;58877;51.992;4.504;2023-09-07T02:03:05;20.25;76.03
71177;DHT22;58877;51.992;4.504;2023-09-07T02:05:34;20.22;76.38
71177;DHT22;58877;51.992;4.504;2023-09-07T02:08:00;20.21;76.32
71177;DHT22;58877;51.992;4.504;2023-09-07T02:10:26;20.18;76.62
71177;DHT22;58877;51.992;4.504;2023-09-07T02:12:55;20.15;76.87
71177;DHT22;58877;51.992;4.504;2023-09-07T02:15:22;20.15;76.77
71177;DHT22;58877;51.992;4.504;2023-09-07T02:17:51;20.12;76.74
71177;DHT22;58877;51.992;4.504;2023-09-07T02:20:18;20.11;76.86
71177;DHT22;58877;51.992;4.504;2023-09-07T02:22:45;20.14;76.91
71177;DHT22;58877;51.992;4.504;2023-09-07T02:25:14;20.09;76.77
71177;DHT22;58877;51.992;4.504;2023-09-07T02:27:40;20.09;76.89
71177;DHT22;58877;51.992;4.504;2023-09-07T02:30:06;20.05;77.07
71177;DHT22;58877;51.992;4.504;2023-09-07T02:32:32;20.04;77.09
71177;DHT22;58877;51.992;4.504;2023-09-07T02:34:58;20.02;77.20
71177;DHT22;58877;51.992;4.504;2023-09-07T02:37:23;20.01;77.16
71177;DHT22;58877;51.992;4.504;2023-09-07T02:39:50;20.01;77.20
71177;DHT22;58877;51.992;4.504;2023-09-07T02:42:15;20.01;77.25
71177;DHT22;58877;51.992;4.504;2023-09-07T02:44:41;20.01;77.36
71177;DHT22;58877;51.992;4.504;2023-09-07T02:47:10;19.99;77.43
71177;DHT22;58877;51.992;4.504;2023-09-07T02:49:36;19.98;77.50
71177;DHT22;58877;51.992;4.504;2023-09-07T02:52:02;20.02;77.57
71177;DHT22;58877;51.992;4.504;2023-09-07T02:54:28;19.97;77.61
71177;DHT22;58877;51.992;4.504;2023-09-07T02:56:57;19.94;77.58
71177;DHT22;58877;51.992;4.504;2023-09-07T02:59:22;19.92;77.84
71177;DHT22;58877;51.992;4.504;2023-09-07T03:01:48;19.88;77.65
71177;DHT22;58877;51.992;4.504;2023-09-07T03:04:14;19.85;77.76
71177;DHT22;58877;51.992;4.504;2023-09-07T03:06:39;19.79;77.92
71177;DHT22;58877;51.992;4.504;2023-09-07T03:09:05;19.84;77.86
71177;DHT22;58877;51.992;4.504;2023-09-07T03:11:35;19.88;77.74
71177;DHT22;58877;51.992;4.504;2023-09-07T03:14:00;19.85;77.67
71177;DHT22;58877;51.992;4.504;2023-09-07T03:16:27;19.82;77.68
71177;DHT22;58877;51.992;4.504;2023-09-07T03:18:52;19.84;77.59
71177;DHT22;58877;51.992;4.504;2023-09-07T03:21:18;19.87;77.55
71177;DHT22;58877;51.992;4.504;2023-09-07T03:23:44;19.91;77.43
71177;DHT22;58877;51.992;4.504;2023-09-07T03:26:15;19.91;77.41
71177;DHT22;58877;51.992;4.504;2023-09-07T03:28:40;19.84;77.32
71177;DHT22;58877;51.992;4.504;2023-09-07T03:31:06;19.82;77.28
71177;DHT22;58877;51.992;4.504;2023-09-07T03:33:32;19.79;77.42
71177;DHT22;58877;51.992;4.504;2023-09-07T03:36:00;19.74;77.50
71177;DHT22;58877;51.992;4.504;2023-09-07T03:38:36;19.71;77.47
71177;DHT22;58877;51.992;4.504;2023-09-07T03:41:01;19.68;77.54
71177;DHT22;58877;51.992;4.504;2023-09-07T03:43:27;19.65;77.50
71177;DHT22;58877;51.992;4.504;2023-09-07T03:45:57;19.60;77.48
71177;DHT22;58877;51.992;4.504;2023-09-07T03:48:22;19.60;77.59
71177;DHT22;58877;51.992;4.504;2023-09-07T03:50:48;19.55;77.74
71177;DHT22;58877;51.992;4.504;2023-09-07T03:53:14;19.54;77.95
71177;DHT22;58877;51.992;4.504;2023-09-07T03:55:44;19.57;77.88
71177;DHT22;58877;51.992;4.504;2023-09-07T03:58:10;19.57;77.73
71177;DHT22;58877;51.992;4.504;2023-09-07T04:00:40;19.61;77.75
71177;DHT22;58877;51.992;4.504;2023-09-07T04:03:10;19.60;77.73
71177;DHT22;58877;51.992;4.504;2023-09-07T04:05:39;19.57;77.65
71177;DHT22;58877;51.992;4.504;2023-09-07T04:08:08;19.46;77.61
71177;DHT22;58877;51.992;4.504;2023-09-07T04:10:36;19.34;77.82
71177;DHT22;58877;51.992;4.504;2023-09-07T04:13:03;19.27;78.04
71177;DHT22;58877;51.992;4.504;2023-09-07T04:15:28;19.22;78.23
71177;DHT22;58877;51.992;4.504;2023-09-07T04:17:56;19.19;78.41
71177;DHT22;58877;51.992;4.504;2023-09-07T04:20:22;19.16;78.55
71177;DHT22;58877;51.992;4.504;2023-09-07T04:22:49;19.13;78.83
71177;DHT22;58877;51.992;4.504;2023-09-07T04:25:14;19.10;78.67
71177;DHT22;58877;51.992;4.504;2023-09-07T04:27:40;19.09;78.54
71177;DHT22;58877;51.992;4.504;2023-09-07T04:30:07;19.13;78.50
71177;DHT22;58877;51.992;4.504;2023-09-07T04:32:35;19.09;78.54
71177;DHT22;58877;51.992;4.504;2023-09-07T04:35:02;19.06;78.39
71177;DHT22;58877;51.992;4.504;2023-09-07T04:37:28;19.03;78.35
71177;DHT22;58877;51.992;4.504;2023-09-07T04:39:54;19.02;78.32
71177;DHT22;58877;51.992;4.504;2023-09-07T04:42:21;18.98;78.51
71177;DHT22;58877;51.992;4.504;2023-09-07T04:44:48;18.96;78.49
71177;DHT22;58877;51.992;4.504;2023-09-07T04:47:14;18.93;78.42
71177;DHT22;58877;51.992;4.504;2023-09-07T04:49:41;18.88;78.56
71177;DHT22;58877;51.992;4.504;2023-09-07T04:52:07;18.86;78.68
71177;DHT22;58877;51.992;4.504;2023-09-07T04:54:36;18.88;78.71
71177;DHT22;58877;51.992;4.504;2023-09-07T04:57:02;18.88;78.95
71177;DHT22;58877;51.992;4.504;2023-09-07T04:59:28;18.95;78.88
71177;DHT22;58877;51.992;4.504;2023-09-07T05:01:54;19.02;78.88
71177;DHT22;58877;51.992;4.504;2023-09-07T05:04:20;19.06;78.79
71177;DHT22;58877;51.992;4.504;2023-09-07T05:06:48;19.02;78.93
71177;DHT22;58877;51.992;4.504;2023-09-07T05:09:14;18.96;79.25
71177;DHT22;58877;51.992;4.504;2023-09-07T05:11:40;18.93;79.32
71177;DHT22;58877;51.992;4.504;2023-09-07T05:14:06;18.88;79.56
71177;DHT22;58877;51.992;4.504;2023-09-07T05:16:32;18.83;78.98
71177;DHT22;58877;51.992;4.504;2023-09-07T05:18:57;18.79;79.01
71177;DHT22;58877;51.992;4.504;2023-09-07T05:21:23;18.80;78.92
71177;DHT22;58877;51.992;4.504;2023-09-07T05:23:52;18.77;79.04
71177;DHT22;58877;51.992;4.504;2023-09-07T05:26:23;18.82;79.05
71177;DHT22;58877;51.992;4.504;2023-09-07T05:28:52;18.92;79.14
71177;DHT22;58877;51.992;4.504;2023-09-07T05:31:17;19.06;79.24
71177;DHT22;58877;51.992;4.504;2023-09-07T05:33:43;19.16;79.29
71177;DHT22;58877;51.992;4.504;2023-09-07T05:36:09;19.20;79.19
71177;DHT22;58877;51.992;4.504;2023-09-07T05:38:35;19.23;79.15
71177;DHT22;58877;51.992;4.504;2023-09-07T05:41:01;19.31;79.16
71177;DHT22;58877;51.992;4.504;2023-09-07T05:43:27;19.28;79.13
71177;DHT22;58877;51.992;4.504;2023-09-07T05:45:53;19.27;79.33
71177;DHT22;58877;51.992;4.504;2023-09-07T05:48:25;19.31;79.44
71177;DHT22;58877;51.992;4.504;2023-09-07T05:50:51;19.46;79.34
71177;DHT22;58877;51.992;4.504;2023-09-07T05:53:19;19.51;79.35
71177;DHT22;58877;51.992;4.504;2023-09-07T05:55:50;19.51;79.36
71177;DHT22;58877;51.992;4.504;2023-09-07T05:58:15;19.55;79.38
71177;DHT22;58877;51.992;4.504;2023-09-07T06:00:42;19.57;79.16
71177;DHT22;58877;51.992;4.504;2023-09-07T06:03:08;19.57;79.21
71177;DHT22;58877;51.992;4.504;2023-09-07T06:05:35;19.58;79.39
71177;DHT22;58877;51.992;4.504;2023-09-07T06:08:02;19.70;79.11
71177;DHT22;58877;51.992;4.504;2023-09-07T06:10:29;19.75;79.01
71177;DHT22;58877;51.992;4.504;2023-09-07T06:12:55;19.81;79.10
71177;DHT22;58877;51.992;4.504;2023-09-07T06:15:21;19.89;79.02
71177;DHT22;58877;51.992;4.504;2023-09-07T06:17:47;20.01;78.87
71177;DHT22;58877;51.992;4.504;2023-09-07T06:20:12;20.05;78.92
71177;DHT22;58877;51.992;4.504;2023-09-07T06:22:38;20.14;78.72
71177;DHT22;58877;51.992;4.504;2023-09-07T06:25:04;20.24;78.63
71177;DHT22;58877;51.992;4.504;2023-09-07T06:27:30;20.30;78.22
71177;DHT22;58877;51.992;4.504;2023-09-07T06:29:56;20.22;78.07
71177;DHT22;58877;51.992;4.504;2023-09-07T06:32:22;20.29;78.30
71177;DHT22;58877;51.992;4.504;2023-09-07T06:34:48;20.33;78.35
71177;DHT22;58877;51.992;4.504;2023-09-07T06:37:13;20.50;78.13
71177;DHT22;58877;51.992;4.504;2023-09-07T06:39:39;20.63;77.76
71177;DHT22;58877;51.992;4.504;2023-09-07T06:42:08;20.79;77.29
71177;DHT22;58877;51.992;4.504;2023-09-07T06:44:35;20.94;77.00
71177;DHT22;58877;51.992;4.504;2023-09-07T06:47:00;21.19;76.88
71177;DHT22;58877;51.992;4.504;2023-09-07T06:49:26;21.47;76.22
71177;DHT22;58877;51.992;4.504;2023-09-07T06:51:56;21.62;75.67
71177;DHT22;58877;51.992;4.504;2023-09-07T06:54:22;21.84;74.76
71177;DHT22;58877;51.992;4.504;2023-09-07T06:56:47;21.98;74.07
71177;DHT22;58877;51.992;4.504;2023-09-07T06:59:13;22.05;73.22
71177;DHT22;58877;51.992;4.504;2023-09-07T07:01:39;22.16;72.79
71177;DHT22;58877;51.992;4.504;2023-09-07T07:04:05;22.41;72.79
71177;DHT22;58877;51.992;4.504;2023-09-07T07:06:32;22.55;71.95
71177;DHT22;58877;51.992;4.504;2023-09-07T07:08:57;22.67;71.43
71177;DHT22;58877;51.992;4.504;2023-09-07T07:11:23;22.83;71.08
71177;DHT22;58877;51.992;4.504;2023-09-07T07:13:49;22.93;70.45
71177;DHT22;58877;51.992;4.504;2023-09-07T07:16:16;23.13;69.88
71177;DHT22;58877;51.992;4.504;2023-09-07T07:18:42;23.24;69.22
71177;DHT22;58877;51.992;4.504;2023-09-07T07:21:07;23.38;68.89
71177;DHT22;58877;51.992;4.504;2023-09-07T07:23:35;23.44;68.52
71177;DHT22;58877;51.992;4.504;2023-09-07T07:26:02;23.57;68.29
71177;DHT22;58877;51.992;4.504;2023-09-07T07:28:27;23.68;68.03
71177;DHT22;58877;51.992;4.504;2023-09-07T07:30:53;23.81;67.33
71177;DHT22;58877;51.992;4.504;2023-09-07T07:33:19;24.01;67.20
71177;DHT22;58877;51.992;4.504;2023-09-07T07:35:45;24.15;66.35
71177;DHT22;58877;51.992;4.504;2023-09-07T07:38:12;24.16;66.23
71177;DHT22;58877;51.992;4.504;2023-09-07T07:40:41;24.32;65.48
71177;DHT22;58877;51.992;4.504;2023-09-07T07:43:08;24.42;64.93
71177;DHT22;58877;51.992;4.504;2023-09-07T07:45:34;24.56;64.98
71177;DHT22;58877;51.992;4.504;2023-09-07T07:48:03;24.66;64.14
71177;DHT22;58877;51.992;4.504;2023-09-07T07:50:37;24.69;64.02
71177;DHT22;58877;51.992;4.504;2023-09-07T07:53:03;24.82;64.07
71177;DHT22;58877;51.992;4.504;2023-09-07T07:55:29;24.90;63.80
71177;DHT22;58877;51.992;4.504;2023-09-07T07:57:54;25.00;63.48
71177;DHT22;58877;51.992;4.504;2023-09-07T08:00:20;25.11;63.27
71177;DHT22;58877;51.992;4.504;2023-09-07T08:02:46;25.04;62.65
71177;DHT22;58877;51.992;4.504;2023-09-07T08:05:11;25.14;62.93
71177;DHT22;58877;51.992;4.504;2023-09-07T08:07:37;25.34;62.57
71177;DHT22;58877;51.992;4.504;2023-09-07T08:10:02;25.42;62.39
71177;DHT22;58877;51.992;4.504;2023-09-07T08:12:29;25.65;61.43
71177;DHT22;58877;51.992;4.504;2023-09-07T08:14:55;25.75;61.21
71177;DHT22;58877;51.992;4.504;2023-09-07T08:17:20;25.88;61.29
71177;DHT22;58877;51.992;4.504;2023-09-07T08:19:46;25.99;60.23
71177;DHT22;58877;51.992;4.504;2023-09-07T08:22:13;26.02;60.05
71177;DHT22;58877;51.992;4.504;2023-09-07T08:24:39;26.11;59.50
71177;DHT22;58877;51.992;4.504;2023-09-07T08:27:06;26.26;59.76
71177;DHT22;58877;51.992;4.504;2023-09-07T08:29:32;26.33;58.82
71177;DHT22;58877;51.992;4.504;2023-09-07T08:31:58;26.46;59.17
71177;DHT22;58877;51.992;4.504;2023-09-07T08:34:24;26.50;57.98
71177;DHT22;58877;51.992;4.504;2023-09-07T08:36:51;26.47;57.44
71177;DHT22;58877;51.992;4.504;2023-09-07T08:39:20;26.59;57.96
71177;DHT22;58877;51.992;4.504;2023-09-07T08:41:46;26.72;58.08
71177;DHT22;58877;51.992;4.504;2023-09-07T08:44:17;26.79;58.46
71177;DHT22;58877;51.992;4.504;2023-09-07T08:46:43;26.63;56.92
71177;DHT22;58877;51.992;4.504;2023-09-07T08:49:11;26.61;57.68
71177;DHT22;58877;51.992;4.504;2023-09-07T08:51:38;26.66;58.26
71177;DHT22;58877;51.992;4.504;2023-09-07T08:54:04;26.63;58.22
71177;DHT22;58877;51.992;4.504;2023-09-07T08:56:30;26.63;58.70
71177;DHT22;58877;51.992;4.504;2023-09-07T08:58:57;26.70;58.55
71177;DHT22;58877;51.992;4.504;2023-09-07T09:01:23;26.63;57.22
71177;DHT22;58877;51.992;4.504;2023-09-07T09:03:50;26.66;58.26
71177;DHT22;58877;51.992;4.504;2023-09-07T09:06:20;26.72;58.34
71177;DHT22;58877;51.992;4.504;2023-09-07T09:08:53;26.76;58.27
71177;DHT22;58877;51.992;4.504;2023-09-07T09:11:20;26.84;58.35
71177;DHT22;58877;51.992;4.504;2023-09-07T09:13:47;26.84;58.23
71177;DHT22;58877;51.992;4.504;2023-09-07T09:16:14;26.97;58.20
71177;DHT22;58877;51.992;4.504;2023-09-07T09:18:53;27.03;57.57
71177;DHT22;58877;51.992;4.504;2023-09-07T09:21:23;27.11;58.00
71177;DHT22;58877;51.992;4.504;2023-09-07T09:23:51;27.15;57.85
71177;DHT22;58877;51.992;4.504;2023-09-07T09:26:18;27.18;57.15
71177;DHT22;58877;51.992;4.504;2023-09-07T09:28:47;27.21;56.40
71177;DHT22;58877;51.992;4.504;2023-09-07T09:31:14;27.26;56.80
71177;DHT22;58877;51.992;4.504;2023-09-07T09:33:41;27.35;56.48
71177;DHT22;58877;51.992;4.504;2023-09-07T09:36:13;27.42;56.93
71177;DHT22;58877;51.992;4.504;2023-09-07T09:38:39;27.42;56.62
71177;DHT22;58877;51.992;4.504;2023-09-07T09:41:09;27.45;56.74
71177;DHT22;58877;51.992;4.504;2023-09-07T09:43:36;27.40;56.87
71177;DHT22;58877;51.992;4.504;2023-09-07T09:46:07;27.47;56.90
71177;DHT22;58877;51.992;4.504;2023-09-07T09:48:44;27.57;57.04
71177;DHT22;58877;51.992;4.504;2023-09-07T09:51:10;27.68;56.71
71177;DHT22;58877;51.992;4.504;2023-09-07T09:53:39;27.61;55.99
71177;DHT22;58877;51.992;4.504;2023-09-07T09:56:05;27.62;55.54
71177;DHT22;58877;51.992;4.504;2023-09-07T09:58:31;27.66;56.16
71177;DHT22;58877;51.992;4.504;2023-09-07T10:01:00;27.73;56.28
71177;DHT22;58877;51.992;4.504;2023-09-07T10:03:43;27.71;55.41
71177;DHT22;58877;51.992;4.504;2023-09-07T10:06:26;27.85;55.36
71177;DHT22;58877;51.992;4.504;2023-09-07T10:09:05;27.91;56.12
71177;DHT22;58877;51.992;4.504;2023-09-07T10:11:32;27.95;56.07
71177;DHT22;58877;51.992;4.504;2023-09-07T10:14:00;27.99;55.20
71177;DHT22;58877;51.992;4.504;2023-09-07T10:16:26;27.91;55.44
71177;DHT22;58877;51.992;4.504;2023-09-07T10:18:53;27.92;54.71
71177;DHT22;58877;51.992;4.504;2023-09-07T10:21:18;28.03;55.46
71177;DHT22;58877;51.992;4.504;2023-09-07T10:23:45;28.10;55.06
71177;DHT22;58877;51.992;4.504;2023-09-07T10:26:13;28.22;55.21
71177;DHT22;58877;51.992;4.504;2023-09-07T10:28:40;28.29;54.82
71177;DHT22;58877;51.992;4.504;2023-09-07T10:31:19;28.40;53.74
71177;DHT22;58877;51.992;4.504;2023-09-07T10:33:46;28.45;54.44
71177;DHT22;58877;51.992;4.504;2023-09-07T10:36:27;28.59;53.29
71177;DHT22;58877;51.992;4.504;2023-09-07T10:38:55;28.66;53.17
71177;DHT22;58877;51.992;4.504;2023-09-07T10:41:21;28.71;52.65
71177;DHT22;58877;51.992;4.504;2023-09-07T10:43:53;28.80;52.36
71177;DHT22;58877;51.992;4.504;2023-09-07T10:46:23;28.94;51.87
71177;DHT22;58877;51.992;4.504;2023-09-07T10:48:51;28.87;52.42
71177;DHT22;58877;51.992;4.504;2023-09-07T10:51:18;28.94;51.56
71177;DHT22;58877;51.992;4.504;2023-09-07T10:53:44;28.97;51.63
71177;DHT22;58877;51.992;4.504;2023-09-07T10:56:10;29.06;51.71
71177;DHT22;58877;51.992;4.504;2023-09-07T10:58:37;29.22;51.15
71177;DHT22;58877;51.992;4.504;2023-09-07T11:01:10;29.32;50.95
71177;DHT22;58877;51.992;4.504;2023-09-07T11:03:37;29.44;50.16
71177;DHT22;58877;51.992;4.504;2023-09-07T11:06:12;29.47;49.94
71177;DHT22;58877;51.992;4.504;2023-09-07T11:08:39;29.51;50.75
71177;DHT22;58877;51.992;4.504;2023-09-07T11:11:05;29.55;50.54
71177;DHT22;58877;51.992;4.504;2023-09-07T11:13:31;29.61;50.41
71177;DHT22;58877;51.992;4.504;2023-09-07T11:16:06;29.62;50.05
71177;DHT22;58877;51.992;4.504;2023-09-07T11:18:33;29.65;49.63
71177;DHT22;58877;51.992;4.504;2023-09-07T11:21:01;29.66;50.43
71177;DHT22;58877;51.992;4.504;2023-09-07T11:23:31;29.71;50.86
71177;DHT22;58877;51.992;4.504;2023-09-07T11:26:08;29.78;50.17
71177;DHT22;58877;51.992;4.504;2023-09-07T11:28:34;29.93;50.41
71177;DHT22;58877;51.992;4.504;2023-09-07T11:31:00;29.89;49.68
71177;DHT22;58877;51.992;4.504;2023-09-07T11:33:26;29.96;49.71
71177;DHT22;58877;51.992;4.504;2023-09-07T11:35:53;29.99;49.94
71177;DHT22;58877;51.992;4.504;2023-09-07T11:38:22;30.10;49.31
71177;DHT22;58877;51.992;4.504;2023-09-07T11:40:48;30.16;48.53
71177;DHT22;58877;51.992;4.504;2023-09-07T11:43:15;30.29;48.45
71177;DHT22;58877;51.992;4.504;2023-09-07T11:45:43;30.36;48.38
71177;DHT22;58877;51.992;4.504;2023-09-07T11:48:10;30.39;49.52
71177;DHT22;58877;51.992;4.504;2023-09-07T11:50:37;30.33;48.99
71177;DHT22;58877;51.992;4.504;2023-09-07T11:53:06;30.32;47.36
71177;DHT22;58877;51.992;4.504;2023-09-07T11:55:36;30.46;48.92
71177;DHT22;58877;51.992;4.504;2023-09-07T11:58:04;30.50;47.11
71177;DHT22;58877;51.992;4.504;2023-09-07T12:00:32;30.43;48.12
71177;DHT22;58877;51.992;4.504;2023-09-07T12:03:07;30.47;48.35
71177;DHT22;58877;51.992;4.504;2023-09-07T12:05:34;30.60;48.87
71177;DHT22;58877;51.992;4.504;2023-09-07T12:08:03;30.63;47.00
71177;DHT22;58877;51.992;4.504;2023-09-07T12:10:42;30.64;46.81
71177;DHT22;58877;51.992;4.504;2023-09-07T12:13:21;30.76;46.73
71177;DHT22;58877;51.992;4.504;2023-09-07T12:15:52;30.87;46.88
71177;DHT22;58877;51.992;4.504;2023-09-07T12:18:21;30.88;46.22
71177;DHT22;58877;51.992;4.504;2023-09-07T12:20:47;30.87;46.17
71177;DHT22;58877;51.992;4.504;2023-09-07T12:23:19;30.80;45.75
71177;DHT22;58877;51.992;4.504;2023-09-07T12:26:00;30.87;46.50
71177;DHT22;58877;51.992;4.504;2023-09-07T12:28:32;31.01;45.29
71177;DHT22;58877;51.992;4.504;2023-09-07T12:30:58;31.12;46.06
71177;DHT22;58877;51.992;4.504;2023-09-07T12:33:24;31.12;46.03
71177;DHT22;58877;51.992;4.504;2023-09-07T12:35:58;31.12;46.42
71177;DHT22;58877;51.992;4.504;2023-09-07T12:38:27;31.14;47.38
71177;DHT22;58877;51.992;4.504;2023-09-07T12:40:55;31.18;45.49
71177;DHT22;58877;51.992;4.504;2023-09-07T12:43:20;31.18;46.40
71177;DHT22;58877;51.992;4.504;2023-09-07T12:45:52;31.17;46.24
71177;DHT22;58877;51.992;4.504;2023-09-07T12:48:28;31.18;43.68
71177;DHT22;58877;51.992;4.504;2023-09-07T12:51:01;31.25;43.81
71177;DHT22;58877;51.992;4.504;2023-09-07T12:53:27;31.38;43.13
71177;DHT22;58877;51.992;4.504;2023-09-07T12:55:56;31.41;44.93
71177;DHT22;58877;51.992;4.504;2023-09-07T12:58:25;31.49;44.59
71177;DHT22;58877;51.992;4.504;2023-09-07T13:00:53;31.58;44.76
71177;DHT22;58877;51.992;4.504;2023-09-07T13:03:20;31.66;44.30
71177;DHT22;58877;51.992;4.504;2023-09-07T13:05:49;31.62;44.07
71177;DHT22;58877;51.992;4.504;2023-09-07T13:08:17;31.59;43.20
71177;DHT22;58877;51.992;4.504;2023-09-07T13:13:26;31.82;44.32
71177;DHT22;58877;51.992;4.504;2023-09-07T13:15:56;31.82;44.43
71177;DHT22;58877;51.992;4.504;2023-09-07T13:18:25;31.82;43.77
71177;DHT22;58877;51.992;4.504;2023-09-07T13:20:51;31.82;43.57
71177;DHT22;58877;51.992;4.504;2023-09-07T13:23:43;31.89;42.83
71177;DHT22;58877;51.992;4.504;2023-09-07T13:26:08;31.86;43.29
71177;DHT22;58877;51.992;4.504;2023-09-07T13:28:37;31.88;42.72
71177;DHT22;58877;51.992;4.504;2023-09-07T13:31:12;31.86;42.28
71177;DHT22;58877;51.992;4.504;2023-09-07T13:33:54;31.85;43.02
71177;DHT22;58877;51.992;4.504;2023-09-07T13:36:21;31.81;43.09
71177;DHT22;58877;51.992;4.504;2023-09-07T13:38:46;31.83;43.52
71177;DHT22;58877;51.992;4.504;2023-09-07T13:41:12;31.86;42.67
71177;DHT22;58877;51.992;4.504;2023-09-07T13:43:44;32.01;42.32
71177;DHT22;58877;51.992;4.504;2023-09-07T13:46:10;32.15;42.43
71177;DHT22;58877;51.992;4.504;2023-09-07T13:48:38;32.20;41.59
71177;DHT22;58877;51.992;4.504;2023-09-07T13:51:04;32.23;40.27
71177;DHT22;58877;51.992;4.504;2023-09-07T13:53:34;32.23;40.73
71177;DHT22;58877;51.992;4.504;2023-09-07T13:56:04;32.33;40.74
71177;DHT22;58877;51.992;4.504;2023-09-07T13:58:39;32.35;40.70
71177;DHT22;58877;51.992;4.504;2023-09-07T14:01:18;32.37;40.38
71177;DHT22;58877;51.992;4.504;2023-09-07T14:03:49;32.44;39.91
71177;DHT22;58877;51.992;4.504;2023-09-07T14:06:15;32.50;39.89
71177;DHT22;58877;51.992;4.504;2023-09-07T14:08:50;32.53;38.42
71177;DHT22;58877;51.992;4.504;2023-09-07T14:11:26;32.56;39.80
71177;DHT22;58877;51.992;4.504;2023-09-07T14:13:53;32.53;39.44
71177;DHT22;58877;51.992;4.504;2023-09-07T14:16:20;32.64;39.14
71177;DHT22;58877;51.992;4.504;2023-09-07T14:18:47;32.70;39.29
71177;DHT22;58877;51.992;4.504;2023-09-07T14:21:29;32.67;39.19
71177;DHT22;58877;51.992;4.504;2023-09-07T14:23:54;32.68;38.70
71177;DHT22;58877;51.992;4.504;2023-09-07T14:26:21;32.70;39.37
71177;DHT22;58877;51.992;4.504;2023-09-07T14:28:47;32.81;39.33
71177;DHT22;58877;51.992;4.504;2023-09-07T14:31:23;32.92;38.67
71177;DHT22;58877;51.992;4.504;2023-09-07T14:34:04;33.04;38.35
71177;DHT22;58877;51.992;4.504;2023-09-07T14:36:35;33.11;37.62
71177;DHT22;58877;51.992;4.504;2023-09-07T14:39:02;33.20;37.07
71177;DHT22;58877;51.992;4.504;2023-09-07T14:41:38;33.32;38.26
71177;DHT22;58877;51.992;4.504;2023-09-07T14:44:36;33.50;37.34
71177;DHT22;58877;51.992;4.504;2023-09-07T14:47:44;33.69;37.88
71177;DHT22;58877;51.992;4.504;2023-09-07T14:50:15;33.89;37.35
71177;DHT22;58877;51.992;4.504;2023-09-07T14:52:45;34.12;37.08
71177;DHT22;58877;51.992;4.504;2023-09-07T14:55:21;34.74;36.57
71177;DHT22;58877;51.992;4.504;2023-09-07T14:57:52;35.38;36.52
71177;DHT22;58877;51.992;4.504;2023-09-07T15:00:19;36.11;35.47
71177;DHT22;58877;51.992;4.504;2023-09-07T15:02:44;36.73;35.85
71177;DHT22;58877;51.992;4.504;2023-09-07T15:05:10;37.20;33.44
71177;DHT22;58877;51.992;4.504;2023-09-07T15:07:36;37.41;32.90
71177;DHT22;58877;51.992;4.504;2023-09-07T15:10:03;37.68;32.96
71177;DHT22;58877;51.992;4.504;2023-09-07T15:12:29;37.80;33.22
71177;DHT22;58877;51.992;4.504;2023-09-07T15:14:58;38.09;32.53
71177;DHT22;58877;51.992;4.504;2023-09-07T15:17:25;38.46;32.41
71177;DHT22;58877;51.992;4.504;2023-09-07T15:19:55;38.75;30.27
71177;DHT22;58877;51.992;4.504;2023-09-07T15:22:34;38.75;29.99
71177;DHT22;58877;51.992;4.504;2023-09-07T15:25:00;38.53;32.27
71177;DHT22;58877;51.992;4.504;2023-09-07T15:27:29;38.84;32.53
71177;DHT22;58877;51.992;4.504;2023-09-07T15:29:55;39.06;31.33
71177;DHT22;58877;51.992;4.504;2023-09-07T15:32:22;39.17;30.73
71177;DHT22;58877;51.992;4.504;2023-09-07T15:34:51;39.21;30.46
71177;DHT22;58877;51.992;4.504;2023-09-07T15:37:20;39.21;30.65
71177;DHT22;58877;51.992;4.504;2023-09-07T15:39:45;39.31;30.05